Time;durP1;ratioP1;P1;durP2;ratioP2;P2;SDS_P1;SDS_P2;PMS_P1;PMS_P2;Temp;Humidity;BMP_temperature;BMP_pressure;BME280_temperature;BME280_humidity;BME280_pressure;Samples;Min_cycle;Max_cycle;Signal;HPM_P1;HPM_P2
2023/04/28 00:00:54;;;;;;;8.60;5.68;;;;;;;;;;4845419;29;20045;-78
2023/04/28 00:03:20;;;;;;;11.82;6.05;;;;;;;;;;4855330;29;20132;-78
2023/04/28 00:05:48;;;;;;;10.23;5.63;;;;;;;;;;4854315;29;20057;-79
2023/04/28 00:08:14;;;;;;;9.27;5.65;;;;;;;;;;4864322;29;20037;-78
2023/04/28 00:10:41;;;;;;;9.68;5.80;;;;;;;;;;4825982;29;20543;-78
2023/04/28 00:13:07;;;;;;;10.20;5.55;;;;;;;;;;4839883;29;20071;-78
2023/04/28 00:15:34;;;;;;;8.80;5.25;;;;;;;;;;4841093;29;20120;-78
2023/04/28 00:18:00;;;;;;;9.48;5.65;;;;;;;;;;4855292;29;20121;-78
2023/04/28 00:20:26;;;;;;;8.70;4.90;;;;;;;;;;4843609;29;20033;-77
2023/04/28 00:22:53;;;;;;;9.65;5.68;;;;;;;;;;4851869;29;20061;-77
2023/04/28 00:25:19;;;;;;;8.90;5.45;;;;;;;;;;4858424;29;20038;-78
2023/04/28 00:27:45;;;;;;;9.50;5.60;;;;;;;;;;4837500;29;20046;-77
2023/04/28 00:30:11;;;;;;;9.00;5.00;;;;;;;;;;4843621;29;20042;-78
2023/04/28 00:32:37;;;;;;;8.75;5.53;;;;;;;;;;4863191;29;20057;-77
2023/04/28 00:35:03;;;;;;;12.60;5.03;;;;;;;;;;4856391;29;20038;-76
2023/04/28 00:37:30;;;;;;;10.77;5.47;;;;;;;;;;4856763;29;20049;-77
2023/04/28 00:39:57;;;;;;;7.22;5.40;;;;;;;;;;4835342;29;20503;-78
2023/04/28 00:42:23;;;;;;;9.65;5.15;;;;;;;;;;4821055;29;20030;-77
2023/04/28 00:44:49;;;;;;;12.32;5.15;;;;;;;;;;4820025;29;20041;-77
2023/04/28 00:47:17;;;;;;;9.48;5.38;;;;;;;;;;4823471;29;20043;-77
2023/04/28 00:49:43;;;;;;;10.18;5.38;;;;;;;;;;4816878;29;20044;-77
2023/04/28 00:52:09;;;;;;;8.52;5.07;;;;;;;;;;4821709;29;20098;-78
2023/04/28 00:54:36;;;;;;;7.13;5.18;;;;;;;;;;4815927;29;20083;-77
2023/04/28 00:57:03;;;;;;;11.30;4.70;;;;;;;;;;4822801;29;20341;-77
2023/04/28 00:59:29;;;;;;;9.88;5.28;;;;;;;;;;4809663;29;20039;-77
2023/04/28 01:01:56;;;;;;;7.53;4.53;;;;;;;;;;4826257;29;20038;-77
2023/04/28 01:04:22;;;;;;;13.63;5.60;;;;;;;;;;4816964;29;20034;-77
2023/04/28 01:06:49;;;;;;;12.05;4.82;;;;;;;;;;4821180;29;20118;-77
2023/04/28 01:09:15;;;;;;;7.60;5.22;;;;;;;;;;4805158;29;20476;-76
2023/04/28 01:11:41;;;;;;;7.30;5.10;;;;;;;;;;4802545;29;20049;-77
2023/04/28 01:14:08;;;;;;;8.98;5.30;;;;;;;;;;4809993;29;20038;-77
2023/04/28 01:16:34;;;;;;;12.13;6.07;;;;;;;;;;4819830;29;20404;-77
2023/04/28 01:19:01;;;;;;;6.65;5.30;;;;;;;;;;4815548;29;20030;-77
2023/04/28 01:21:33;;;;;;;8.57;5.45;;;;;;;;;;4824235;29;20045;-77
2023/04/28 01:24:00;;;;;;;7.15;5.15;;;;;;;;;;4818184;29;20391;-77
2023/04/28 01:26:26;;;;;;;7.07;5.47;;;;;;;;;;4817361;29;20469;-77
2023/04/28 01:28:52;;;;;;;10.88;6.03;;;;;;;;;;4814902;29;20050;-77
2023/04/28 01:31:19;;;;;;;7.55;5.60;;;;;;;;;;4822579;29;20042;-77
2023/04/28 01:33:45;;;;;;;9.73;6.03;;;;;;;;;;4815235;29;20039;-77
2023/04/28 01:36:11;;;;;;;9.73;6.43;;;;;;;;;;4821462;29;20045;-77
2023/04/28 01:38:37;;;;;;;13.57;6.45;;;;;;;;;;4817239;29;20042;-76
2023/04/28 01:41:03;;;;;;;8.68;5.55;;;;;;;;;;4841880;29;20065;-77
2023/04/28 01:43:29;;;;;;;8.98;5.75;;;;;;;;;;4847636;29;20076;-77
2023/04/28 01:45:55;;;;;;;15.50;7.68;;;;;;;;;;4859261;29;20441;-77
2023/04/28 01:48:21;;;;;;;8.27;5.45;;;;;;;;;;4856279;29;20042;-77
2023/04/28 01:50:47;;;;;;;7.38;6.18;;;;;;;;;;4835769;29;20066;-77
2023/04/28 01:53:14;;;;;;;8.57;5.65;;;;;;;;;;4856609;29;20045;-77
2023/04/28 01:55:40;;;;;;;7.35;4.85;;;;;;;;;;4852227;29;20034;-77
2023/04/28 01:58:06;;;;;;;10.40;5.90;;;;;;;;;;4858859;29;20038;-77
2023/04/28 02:00:32;;;;;;;10.60;6.38;;;;;;;;;;4850226;29;20025;-76
2023/04/28 02:02:58;;;;;;;10.73;6.40;;;;;;;;;;4857582;29;20136;-77
2023/04/28 02:05:25;;;;;;;12.18;6.93;;;;;;;;;;4847168;29;20037;-77
2023/04/28 02:07:51;;;;;;;11.23;6.63;;;;;;;;;;4858377;29;20045;-77
2023/04/28 02:10:17;;;;;;;11.73;6.10;;;;;;;;;;4844299;29;20050;-77
2023/04/28 02:12:43;;;;;;;12.15;6.57;;;;;;;;;;4857721;29;20503;-78
2023/04/28 02:15:09;;;;;;;12.75;6.68;;;;;;;;;;4853259;29;20045;-77
2023/04/28 02:17:35;;;;;;;9.52;5.75;;;;;;;;;;4845894;29;20444;-77
2023/04/28 02:20:01;;;;;;;11.70;6.30;;;;;;;;;;4843018;29;20128;-77
2023/04/28 02:22:27;;;;;;;11.02;6.38;;;;;;;;;;4845135;29;20512;-77
2023/04/28 02:24:53;;;;;;;10.88;6.90;;;;;;;;;;4844410;29;20440;-76
2023/04/28 02:27:20;;;;;;;9.65;6.32;;;;;;;;;;4855986;29;20477;-76
2023/04/28 02:29:46;;;;;;;12.98;7.05;;;;;;;;;;4857675;29;20038;-76
2023/04/28 02:32:12;;;;;;;8.63;6.43;;;;;;;;;;4850055;29;20510;-76
2023/04/28 02:34:38;;;;;;;12.10;7.22;;;;;;;;;;4853697;29;20387;-76
2023/04/28 02:37:04;;;;;;;9.30;6.28;;;;;;;;;;4853947;29;20042;-76
2023/04/28 02:39:31;;;;;;;16.67;8.70;;;;;;;;;;4842678;29;20093;-77
2023/04/28 02:41:59;;;;;;;10.68;7.30;;;;;;;;;;4859323;29;20215;-77
2023/04/28 02:44:25;;;;;;;13.15;6.80;;;;;;;;;;4849268;29;20113;-76
2023/04/28 02:46:51;;;;;;;14.07;7.13;;;;;;;;;;4862119;29;20120;-76
2023/04/28 02:49:17;;;;;;;11.63;8.02;;;;;;;;;;4853669;29;20056;-77
2023/04/28 02:51:44;;;;;;;15.73;7.65;;;;;;;;;;4843397;29;20042;-76
2023/04/28 02:54:10;;;;;;;12.65;7.43;;;;;;;;;;4842853;29;20042;-77
2023/04/28 02:56:36;;;;;;;9.60;8.20;;;;;;;;;;4852607;29;20037;-77
2023/04/28 02:59:02;;;;;;;9.07;7.57;;;;;;;;;;4857599;29;20542;-77
2023/04/28 03:01:28;;;;;;;10.02;7.53;;;;;;;;;;4861688;29;20041;-76
2023/04/28 03:03:55;;;;;;;14.32;7.57;;;;;;;;;;4852969;29;20057;-77
2023/04/28 03:06:21;;;;;;;10.57;8.02;;;;;;;;;;4850087;29;20053;-77
2023/04/28 03:08:47;;;;;;;9.90;7.85;;;;;;;;;;4857079;29;20069;-76
2023/04/28 03:11:13;;;;;;;12.50;8.23;;;;;;;;;;4854833;29;20049;-77
2023/04/28 03:13:39;;;;;;;11.82;8.80;;;;;;;;;;4857299;29;20048;-77
2023/04/28 03:16:06;;;;;;;15.15;8.23;;;;;;;;;;4831366;29;20022;-76
2023/04/28 03:18:32;;;;;;;13.07;8.82;;;;;;;;;;4850758;29;20067;-76
2023/04/28 03:20:58;;;;;;;10.82;8.00;;;;;;;;;;4856138;29;20098;-76
2023/04/28 03:23:24;;;;;;;12.02;8.65;;;;;;;;;;4851769;29;20194;-76
2023/04/28 03:25:51;;;;;;;13.52;8.13;;;;;;;;;;4855207;29;20041;-76
2023/04/28 03:28:17;;;;;;;11.02;8.15;;;;;;;;;;4856559;29;20030;-77
2023/04/28 03:30:43;;;;;;;14.85;8.00;;;;;;;;;;4865127;29;20052;-76
2023/04/28 03:33:09;;;;;;;18.00;9.05;;;;;;;;;;4862159;29;20038;-76
2023/04/28 03:35:35;;;;;;;14.23;9.18;;;;;;;;;;4850975;29;20137;-76
2023/04/28 03:38:01;;;;;;;17.58;8.88;;;;;;;;;;4859698;29;20060;-76
2023/04/28 03:40:27;;;;;;;12.63;9.38;;;;;;;;;;4857956;29;20059;-76
2023/04/28 03:42:53;;;;;;;14.00;8.88;;;;;;;;;;4857529;29;20065;-76
2023/04/28 03:45:20;;;;;;;11.30;9.07;;;;;;;;;;4856813;29;20038;-76
2023/04/28 03:47:46;;;;;;;11.38;8.57;;;;;;;;;;4864128;29;20091;-76
2023/04/28 03:50:12;;;;;;;14.57;8.85;;;;;;;;;;4851016;29;20044;-76
2023/04/28 03:52:38;;;;;;;17.75;10.18;;;;;;;;;;4847829;29;20616;-76
2023/04/28 03:55:04;;;;;;;16.08;10.15;;;;;;;;;;4847232;29;20442;-76
2023/04/28 03:57:30;;;;;;;18.48;10.10;;;;;;;;;;4841842;29;20038;-76
2023/04/28 03:59:56;;;;;;;17.33;10.52;;;;;;;;;;4841237;29;20044;-76
2023/04/28 04:02:22;;;;;;;16.00;10.38;;;;;;;;;;4869297;29;20118;-76
2023/04/28 04:04:48;;;;;;;12.35;9.80;;;;;;;;;;4857600;29;20042;-76
2023/04/28 04:07:14;;;;;;;15.32;9.85;;;;;;;;;;4857791;29;20046;-77
2023/04/28 04:09:43;;;;;;;18.85;9.85;;;;;;;;;;4854808;29;20403;-77
2023/04/28 04:12:10;;;;;;;15.48;10.02;;;;;;;;;;4854397;29;20420;-77
2023/04/28 04:14:36;;;;;;;18.27;10.63;;;;;;;;;;4849247;29;20037;-76
2023/04/28 04:17:02;;;;;;;17.00;10.93;;;;;;;;;;4855483;29;20049;-76
2023/04/28 04:19:28;;;;;;;13.15;9.98;;;;;;;;;;4853520;29;20070;-76
2023/04/28 04:21:55;;;;;;;15.73;10.77;;;;;;;;;;4855545;29;20034;-76
2023/04/28 04:24:21;;;;;;;20.15;11.63;;;;;;;;;;4852007;29;20038;-76
2023/04/28 04:26:47;;;;;;;15.52;11.82;;;;;;;;;;4849871;29;20030;-76
2023/04/28 04:29:13;;;;;;;17.20;11.23;;;;;;;;;;4848018;29;20037;-73
2023/04/28 04:31:39;;;;;;;15.90;10.05;;;;;;;;;;4853221;29;20396;-78
2023/04/28 04:34:06;;;;;;;16.45;11.98;;;;;;;;;;4849230;29;20049;-79
2023/04/28 04:36:32;;;;;;;20.00;11.05;;;;;;;;;;4849344;29;20069;-80
2023/04/28 04:38:58;;;;;;;18.92;10.82;;;;;;;;;;4848635;29;20037;-72
2023/04/28 04:41:26;;;;;;;17.30;12.82;;;;;;;;;;4853696;29;20448;-81
2023/04/28 04:43:52;;;;;;;31.92;19.70;;;;;;;;;;4853021;29;20082;-80
2023/04/28 04:46:18;;;;;;;20.92;13.45;;;;;;;;;;4858748;29;20434;-78
2023/04/28 04:48:44;;;;;;;17.50;11.15;;;;;;;;;;4846413;29;20083;-79
2023/04/28 04:51:10;;;;;;;16.20;11.43;;;;;;;;;;4850081;29;20432;-77
2023/04/28 04:53:36;;;;;;;18.80;10.95;;;;;;;;;;4858496;29;20041;-77
2023/04/28 04:56:02;;;;;;;20.17;10.98;;;;;;;;;;4846186;29;20042;-78
2023/04/28 04:58:29;;;;;;;14.40;11.00;;;;;;;;;;4849438;29;20102;-79
2023/04/28 05:00:55;;;;;;;20.75;11.23;;;;;;;;;;4858632;29;20473;-80
2023/04/28 05:03:21;;;;;;;23.85;10.43;;;;;;;;;;4850766;29;20462;-77
2023/04/28 05:05:48;;;;;;;16.20;11.15;;;;;;;;;;4855098;29;20116;-78
2023/04/28 05:08:14;;;;;;;19.23;11.00;;;;;;;;;;4859652;29;20040;-77
2023/04/28 05:10:42;;;;;;;18.30;11.52;;;;;;;;;;4854511;29;20109;-78
2023/04/28 05:13:08;;;;;;;18.83;12.90;;;;;;;;;;4851623;29;20034;-80
2023/04/28 05:15:34;;;;;;;18.13;11.40;;;;;;;;;;4848280;29;20108;-78
2023/04/28 05:18:05;;;;;;;17.70;11.18;;;;;;;;;;4864025;29;20025;-78
2023/04/28 05:20:31;;;;;;;19.08;11.95;;;;;;;;;;4849733;29;20448;-77
2023/04/28 05:22:57;;;;;;;18.15;11.80;;;;;;;;;;4845476;29;20050;-77
2023/04/28 05:25:23;;;;;;;17.40;12.60;;;;;;;;;;4851558;29;20030;-77
2023/04/28 05:27:49;;;;;;;16.52;11.75;;;;;;;;;;4852451;29;20057;-80
2023/04/28 05:30:15;;;;;;;16.50;11.13;;;;;;;;;;4859895;29;20034;-78
2023/04/28 05:32:41;;;;;;;24.23;14.02;;;;;;;;;;4856403;29;20038;-77
2023/04/28 05:35:08;;;;;;;23.38;13.65;;;;;;;;;;4850977;29;20053;-78
2023/04/28 05:37:34;;;;;;;14.80;10.70;;;;;;;;;;4857379;29;20029;-84
2023/04/28 05:40:00;;;;;;;23.92;12.55;;;;;;;;;;4852923;29;20030;-78
2023/04/28 05:42:27;;;;;;;17.38;11.02;;;;;;;;;;4840658;29;20496;-77
2023/04/28 05:44:53;;;;;;;16.63;11.20;;;;;;;;;;4850216;29;20531;-77
2023/04/28 05:47:19;;;;;;;18.25;12.05;;;;;;;;;;4852354;29;20057;-78
2023/04/28 05:49:45;;;;;;;17.25;12.27;;;;;;;;;;4851682;29;20124;-77
2023/04/28 05:52:11;;;;;;;17.20;11.75;;;;;;;;;;4853855;29;20044;-78
2023/04/28 05:54:37;;;;;;;17.50;11.48;;;;;;;;;;4852044;29;20452;-77
2023/04/28 05:57:06;;;;;;;15.88;11.23;;;;;;;;;;4849612;29;20048;-78
2023/04/28 05:59:32;;;;;;;16.67;11.15;;;;;;;;;;4839963;29;20042;-78
2023/04/28 06:01:58;;;;;;;17.45;10.68;;;;;;;;;;4849842;29;20184;-78
2023/04/28 06:04:24;;;;;;;15.95;11.00;;;;;;;;;;4851915;29;20113;-79
2023/04/28 06:06:51;;;;;;;15.60;10.50;;;;;;;;;;4852536;29;20044;-80
2023/04/28 06:09:17;;;;;;;15.45;10.77;;;;;;;;;;4854819;29;20081;-79
2023/04/28 06:11:43;;;;;;;14.95;11.23;;;;;;;;;;4851348;29;20034;-79
2023/04/28 06:14:10;;;;;;;17.95;11.02;;;;;;;;;;4846868;29;20501;-78
2023/04/28 06:16:36;;;;;;;14.60;10.50;;;;;;;;;;4860982;29;20479;-78
2023/04/28 06:19:03;;;;;;;19.40;10.60;;;;;;;;;;4845374;29;20503;-78
2023/04/28 06:21:31;;;;;;;19.35;12.25;;;;;;;;;;4858395;29;20072;-78
2023/04/28 06:23:57;;;;;;;18.10;11.52;;;;;;;;;;4841584;29;20033;-78
2023/04/28 06:26:23;;;;;;;16.23;10.30;;;;;;;;;;4857515;29;20036;-79
2023/04/28 06:28:50;;;;;;;17.92;11.15;;;;;;;;;;4831917;29;20086;-79
2023/04/28 06:31:16;;;;;;;16.17;10.55;;;;;;;;;;4843481;29;20147;-80
2023/04/28 06:33:42;;;;;;;16.38;11.13;;;;;;;;;;4859523;29;20045;-80
2023/04/28 06:36:08;;;;;;;17.27;10.40;;;;;;;;;;4857194;29;20051;-79
2023/04/28 06:38:35;;;;;;;18.88;11.90;;;;;;;;;;4859895;29;20108;-79
2023/04/28 06:41:02;;;;;;;18.05;10.65;;;;;;;;;;4856177;29;20486;-80
2023/04/28 06:43:28;;;;;;;17.58;10.45;;;;;;;;;;4857197;29;20041;-79
2023/04/28 06:45:54;;;;;;;20.40;11.18;;;;;;;;;;4858596;29;20113;-80
2023/04/28 06:48:20;;;;;;;17.08;11.20;;;;;;;;;;4852680;29;20403;-80
2023/04/28 06:50:46;;;;;;;16.15;10.80;;;;;;;;;;4856522;29;20062;-79
2023/04/28 06:53:12;;;;;;;18.42;10.65;;;;;;;;;;4859579;29;20030;-79
2023/04/28 06:55:38;;;;;;;14.85;10.77;;;;;;;;;;4859991;29;20042;-79
2023/04/28 06:58:04;;;;;;;15.77;10.95;;;;;;;;;;4858230;29;20029;-78
2023/04/28 07:00:30;;;;;;;14.45;10.40;;;;;;;;;;4855192;29;20081;-78
2023/04/28 07:02:56;;;;;;;15.02;10.55;;;;;;;;;;4855943;29;20121;-79
2023/04/28 07:05:22;;;;;;;17.10;11.43;;;;;;;;;;4857704;29;20029;-78
2023/04/28 07:07:49;;;;;;;13.05;9.88;;;;;;;;;;4859091;29;20048;-78
2023/04/28 07:10:15;;;;;;;15.05;10.95;;;;;;;;;;4857065;29;20113;-78
2023/04/28 07:12:41;;;;;;;14.95;10.73;;;;;;;;;;4843219;29;20441;-77
2023/04/28 07:15:07;;;;;;;16.60;10.70;;;;;;;;;;4861523;29;20524;-80
2023/04/28 07:17:33;;;;;;;16.38;10.65;;;;;;;;;;4847129;29;20056;-80
2023/04/28 07:20:00;;;;;;;16.13;11.32;;;;;;;;;;4864585;29;20037;-79
2023/04/28 07:22:26;;;;;;;14.55;11.02;;;;;;;;;;4839688;29;20049;-79
2023/04/28 07:24:52;;;;;;;16.95;10.70;;;;;;;;;;4850628;29;20391;-79
2023/04/28 07:27:22;;;;;;;18.35;11.05;;;;;;;;;;4853328;29;20486;-80
2023/04/28 07:29:48;;;;;;;14.07;10.35;;;;;;;;;;4851678;29;20033;-75
2023/04/28 07:32:14;;;;;;;17.83;12.80;;;;;;;;;;4854934;29;20034;-83
2023/04/28 07:34:40;;;;;;;19.95;12.48;;;;;;;;;;4850613;29;20056;-75
2023/04/28 07:37:06;;;;;;;15.50;10.68;;;;;;;;;;4854505;29;20080;-76
2023/04/28 07:39:33;;;;;;;14.25;10.50;;;;;;;;;;4852060;29;20369;-79
2023/04/28 07:42:01;;;;;;;18.00;10.45;;;;;;;;;;4853263;29;20053;-80
2023/04/28 07:44:27;;;;;;;19.08;10.98;;;;;;;;;;4848932;29;20033;-78
2023/04/28 07:46:54;;;;;;;16.73;11.05;;;;;;;;;;4846456;29;20476;-78
2023/04/28 07:49:20;;;;;;;14.90;9.75;;;;;;;;;;4838113;29;20166;-78
2023/04/28 07:51:46;;;;;;;14.85;11.52;;;;;;;;;;4853466;29;20061;-77
2023/04/28 07:54:12;;;;;;;14.13;10.48;;;;;;;;;;4852564;29;20490;-78
2023/04/28 07:56:38;;;;;;;14.23;10.68;;;;;;;;;;4849321;29;20125;-77
2023/04/28 07:59:08;;;;;;;19.63;12.30;;;;;;;;;;4851489;29;20086;-80
2023/04/28 08:01:34;;;;;;;16.63;11.35;;;;;;;;;;4840507;29;20479;-78
2023/04/28 08:04:00;;;;;;;17.92;12.07;;;;;;;;;;4852657;29;20419;-82
2023/04/28 08:06:26;;;;;;;16.98;11.75;;;;;;;;;;4852602;29;20444;-82
2023/04/28 08:08:52;;;;;;;16.90;12.38;;;;;;;;;;4854454;29;20063;-80
2023/04/28 08:11:20;;;;;;;25.38;13.50;;;;;;;;;;4853265;29;20164;-78
2023/04/28 08:13:46;;;;;;;19.50;12.25;;;;;;;;;;4839306;29;20045;-80
2023/04/28 08:16:12;;;;;;;17.42;12.40;;;;;;;;;;4856519;29;20045;-84
2023/04/28 08:18:38;;;;;;;19.92;13.35;;;;;;;;;;4851027;29;20044;-81
2023/04/28 08:21:05;;;;;;;15.90;12.02;;;;;;;;;;4852641;29;20479;-79
2023/04/28 08:23:31;;;;;;;17.55;12.48;;;;;;;;;;4850838;29;20101;-79
2023/04/28 08:25:57;;;;;;;20.92;13.20;;;;;;;;;;4831196;29;20056;-80
2023/04/28 08:28:23;;;;;;;19.90;11.77;;;;;;;;;;4855382;29;20367;-82
2023/04/28 08:30:49;;;;;;;16.88;12.30;;;;;;;;;;4845376;29;20038;-81
2023/04/28 08:33:15;;;;;;;20.13;12.50;;;;;;;;;;4839870;29;20037;-77
2023/04/28 08:35:41;;;;;;;17.48;11.98;;;;;;;;;;4857068;29;20053;-78
2023/04/28 08:38:12;;;;;;;21.75;11.73;;;;;;;;;;4852648;29;20068;-80
2023/04/28 08:40:38;;;;;;;16.83;11.68;;;;;;;;;;4854353;29;20048;-79
2023/04/28 08:43:05;;;;;;;19.02;11.85;;;;;;;;;;4837332;29;20058;-79
2023/04/28 08:45:40;;;;;;;17.98;11.82;;;;;;;;;;4850546;29;20029;-81
2023/04/28 08:48:07;;;;;;;28.38;16.40;;;;;;;;;;4849089;29;20399;-74
2023/04/28 08:50:34;;;;;;;22.95;13.65;;;;;;;;;;4857963;29;20166;-78
2023/04/28 08:53:03;;;;;;;16.88;11.80;;;;;;;;;;4847641;29;20031;-80
2023/04/28 08:55:30;;;;;;;19.70;11.73;;;;;;;;;;4860138;29;20065;-82
2023/04/28 08:57:56;;;;;;;18.35;11.00;;;;;;;;;;4845246;29;20026;-83
2023/04/28 09:00:23;;;;;;;23.05;12.73;;;;;;;;;;4851961;29;20045;-81
2023/04/28 09:02:49;;;;;;;17.15;12.13;;;;;;;;;;4837251;29;20022;-80
2023/04/28 09:05:15;;;;;;;15.43;10.48;;;;;;;;;;4852248;29;20112;-81
2023/04/28 09:07:46;;;;;;;14.82;11.05;;;;;;;;;;4834286;29;21177;-80
2023/04/28 09:10:20;;;;;;;16.23;11.32;;;;;;;;;;4853074;29;20049;-76
2023/04/28 09:12:46;;;;;;;16.77;10.73;;;;;;;;;;4853688;29;20121;-79
2023/04/28 09:15:25;;;;;;;15.27;10.57;;;;;;;;;;4846915;29;20033;-81
2023/04/28 09:17:52;;;;;;;16.73;11.07;;;;;;;;;;4846309;29;20071;-82
2023/04/28 09:20:25;;;;;;;14.98;10.48;;;;;;;;;;4835100;29;20029;-78
2023/04/28 09:22:52;;;;;;;13.65;10.18;;;;;;;;;;4849665;29;20037;-78
2023/04/28 09:25:20;;;;;;;15.10;10.98;;;;;;;;;;4851411;29;20057;-81
2023/04/28 09:27:46;;;;;;;15.18;10.85;;;;;;;;;;4848766;29;20025;-81
2023/04/28 09:30:12;;;;;;;15.52;10.48;;;;;;;;;;4841651;29;20467;-81
2023/04/28 09:32:39;;;;;;;16.27;9.98;;;;;;;;;;4851992;29;20033;-78
2023/04/28 09:35:06;;;;;;;13.00;10.02;;;;;;;;;;4849494;29;20041;-81
2023/04/28 09:37:32;;;;;;;15.13;9.77;;;;;;;;;;4847997;29;20029;-81
2023/04/28 09:40:08;;;;;;;14.32;10.55;;;;;;;;;;4853446;29;20037;-84
2023/04/28 09:42:35;;;;;;;16.00;9.50;;;;;;;;;;4830601;29;20477;-84
2023/04/28 09:45:19;;;;;;;17.42;11.00;;;;;;;;;;4835127;29;20529;-84
2023/04/28 09:47:46;;;;;;;14.20;10.05;;;;;;;;;;4822957;29;20042;-80
2023/04/28 09:50:15;;;;;;;20.33;13.63;;;;;;;;;;4813989;29;20035;-80
2023/04/28 09:52:43;;;;;;;15.93;10.30;;;;;;;;;;4816500;29;20033;-84
2023/04/28 09:55:10;;;;;;;12.98;9.50;;;;;;;;;;4816421;29;20034;-81
2023/04/28 09:57:37;;;;;;;13.52;8.80;;;;;;;;;;4818717;29;20129;-80
2023/04/28 10:00:05;;;;;;;13.93;8.95;;;;;;;;;;4815892;29;20113;-77
2023/04/28 10:02:31;;;;;;;13.30;8.82;;;;;;;;;;4818069;29;20479;-77
2023/04/28 10:04:57;;;;;;;18.92;9.73;;;;;;;;;;4821682;29;20353;-77
2023/04/28 10:07:23;;;;;;;12.43;9.63;;;;;;;;;;4813900;29;20047;-79
2023/04/28 10:09:50;;;;;;;13.18;9.95;;;;;;;;;;4819050;29;20131;-79
2023/04/28 10:12:17;;;;;;;10.80;8.93;;;;;;;;;;4813315;29;20042;-78
2023/04/28 10:14:43;;;;;;;15.73;9.52;;;;;;;;;;4821917;29;20033;-79
2023/04/28 10:17:10;;;;;;;15.32;9.07;;;;;;;;;;4819175;29;20042;-79
2023/04/28 10:19:36;;;;;;;17.40;9.45;;;;;;;;;;4819696;29;20474;-78
2023/04/28 10:22:02;;;;;;;11.75;9.02;;;;;;;;;;4816412;29;20026;-79
2023/04/28 10:24:30;;;;;;;14.43;9.13;;;;;;;;;;4816490;29;20463;-79
2023/04/28 10:27:07;;;;;;;10.55;8.40;;;;;;;;;;4812295;29;20031;-78
2023/04/28 10:29:33;;;;;;;11.48;9.07;;;;;;;;;;4811224;29;20443;-79
2023/04/28 10:32:15;;;;;;;15.68;9.98;;;;;;;;;;4814871;29;20133;-80
2023/04/28 10:34:42;;;;;;;12.75;8.57;;;;;;;;;;4806880;29;20035;-76
2023/04/28 10:37:08;;;;;;;12.15;8.52;;;;;;;;;;4817186;29;20034;-77
2023/04/28 10:39:34;;;;;;;16.40;8.82;;;;;;;;;;4815161;29;20452;-77
2023/04/28 10:42:00;;;;;;;10.65;8.25;;;;;;;;;;4826708;29;20107;-78
2023/04/28 10:44:29;;;;;;;10.27;8.02;;;;;;;;;;4844829;29;20080;-77
2023/04/28 10:47:08;;;;;;;21.05;14.13;;;;;;;;;;4838213;29;20105;-80
2023/04/28 10:49:59;;;;;;;12.10;8.93;;;13.40;99.90;;;;;;4841175;29;20085;-82
2023/04/28 10:52:39;;;;;;;13.65;8.05;;;;;;;;;;4838542;29;20025;-84
2023/04/28 10:55:23;;;;;;;12.85;8.35;;;;;;;;;;4832898;29;20078;-83
2023/04/28 10:58:08;;;;;;;12.25;7.90;;;;;;;;;;4832808;29;20086;-84
2023/04/28 11:00:35;;;;;;;9.73;8.00;;;;;;;;;;4831542;29;20033;-83
2023/04/28 11:03:01;;;;;;;10.10;7.78;;;;;;;;;;4840534;29;20399;-79
2023/04/28 11:05:27;;;;;;;8.68;7.75;;;;;;;;;;4834348;29;20045;-81
2023/04/28 11:08:16;;;;;;;10.52;7.50;;;;;;;;;;4843799;29;20051;-82
2023/04/28 11:11:19;;;;;;;11.55;7.93;;;14.00;99.90;;;;;;4834332;29;20483;-81
2023/04/28 11:13:47;;;;;;;11.23;7.35;;;;;;;;;;4766474;30;20080;-81
2023/04/28 11:16:15;;;;;;;12.52;7.85;;;;;;;;;;4816964;29;20125;-79
2023/04/28 11:18:51;;;;;;;11.15;7.25;;;;;;;;;;4847856;29;20555;-82
2023/04/28 11:21:21;;;;;;;12.93;8.07;;;;;;;;;;4834886;29;20031;-77
2023/04/28 11:23:47;;;;;;;12.75;7.35;;;;;;;;;;4836969;29;20108;-81
2023/04/28 11:26:13;;;;;;;10.20;7.60;;;;;;;;;;4836121;29;20034;-83
2023/04/28 11:28:46;;;;;;;10.50;7.22;;;;;;;;;;4833065;29;20037;-82
2023/04/28 11:31:23;;;;;;;10.90;6.95;;;;;;;;;;4853374;29;20121;-83
2023/04/28 11:33:54;;;;;;;11.88;8.00;;;;;;;;;;4848286;29;20022;-84
2023/04/28 11:36:24;;;;;;;13.32;7.38;;;;;;;;;;4832114;29;20034;-81
2023/04/28 11:38:50;;;;;;;10.50;7.10;;;;;;;;;;4840303;29;20045;-78
2023/04/28 11:41:16;;;;;;;10.27;7.20;;;;;;;;;;4836996;29;20206;-81
2023/04/28 11:43:42;;;;;;;12.15;7.00;;;;;;;;;;4851179;29;20093;-80
2023/04/28 11:46:08;;;;;;;7.30;6.63;;;;;;;;;;4856969;29;20058;-83
2023/04/28 11:48:34;;;;;;;11.13;7.70;;;;;;;;;;4855753;29;20059;-85
2023/04/28 11:51:00;;;;;;;9.13;7.30;;;;;;;;;;4851985;29;20105;-82
2023/04/28 11:53:45;;;;;;;13.65;7.47;;;;;;;;;;4851659;29;20049;-81
2023/04/28 11:56:12;;;;;;;13.35;7.90;;;;;;;;;;4852991;29;20160;-82
2023/04/28 11:58:39;;;;;;;14.57;7.55;;;;;;;;;;4851164;29;20471;-86
2023/04/28 12:01:12;;;;;;;10.82;8.27;;;;;;;;;;4855819;29;20356;-83
2023/04/28 12:03:44;;;;;;;11.15;7.63;;;;;;;;;;4854142;29;20034;-80
2023/04/28 12:06:16;;;;;;;;;;;13.90;99.90;;;;;;4853071;29;20479;-83
2023/04/28 12:08:42;;;;;;;11.68;8.05;;;;;;;;;;4856249;29;19912;-81
2023/04/28 12:11:09;;;;;;;11.25;8.50;;;;;;;;;;4851721;29;20076;-80
2023/04/28 12:13:35;;;;;;;12.05;9.55;;;;;;;;;;4857118;29;20018;-79
2023/04/28 12:16:02;;;;;;;12.60;8.93;;;;;;;;;;4851996;29;20063;-79
2023/04/28 12:18:28;;;;;;;11.10;8.57;;;;;;;;;;4843093;29;20082;-76
2023/04/28 12:20:54;;;;;;;16.00;9.15;;;;;;;;;;4847880;29;20046;-82
2023/04/28 12:23:33;;;;;;;11.23;9.00;;;;;;;;;;4847104;29;20328;-83
2023/04/28 12:26:02;;;;;;;15.07;8.85;;;;;;;;;;4856802;29;20032;-86
2023/04/28 12:28:39;;;;;;;12.40;8.80;;;;;;;;;;4822488;29;20079;-83
2023/04/28 12:31:05;;;;;;;15.05;9.63;;;;;;;;;;4857354;29;20049;-83
2023/04/28 12:33:41;;;;;;;10.98;8.32;;;;;;;;;;4853342;29;20598;-83
2023/04/28 12:36:07;;;;;;;13.48;8.52;;;;;;;;;;4858326;29;20108;-85
2023/04/28 12:38:33;;;;;;;14.27;9.32;;;;;;;;;;4851874;29;20512;-84
2023/04/28 12:40:59;;;;;;;13.63;9.65;;;;;;;;;;4841685;29;20132;-85
2023/04/28 12:43:27;;;;;;;16.30;9.82;;;;;;;;;;4846765;29;20411;-85
2023/04/28 12:45:55;;;;;;;14.88;10.00;;;;;;;;;;4840704;29;20069;-84
2023/04/28 12:48:26;;;;;;;14.25;10.60;;;;;;;;;;4855963;29;20033;-84
2023/04/28 12:50:52;;;;;;;15.65;11.98;;;;;;;;;;4844685;29;20045;-84
2023/04/28 12:53:18;;;;;;;14.70;11.05;;;;;;;;;;4857366;29;20029;-84
2023/04/28 12:55:44;;;;;;;13.57;11.45;;;;;;;;;;4859541;29;20178;-84
2023/04/28 12:58:10;;;;;;;18.40;11.15;;;;;;;;;;4858199;29;20038;-86
2023/04/28 13:00:36;;;;;;;17.77;12.73;;;;;;;;;;4863362;29;20040;-83
2023/04/28 13:03:02;;;;;;;13.25;11.88;;;;;;;;;;4859178;29;20030;-84
2023/04/28 13:05:28;;;;;;;17.70;13.05;;;;;;;;;;4827295;29;20037;-84
2023/04/28 13:07:54;;;;;;;15.30;13.07;;;;;;;;;;4855977;29;20140;-85
2023/04/28 13:10:22;;;;;;;23.92;14.50;;;;;;;;;;4820577;29;20128;-86
2023/04/28 13:12:48;;;;;;;17.40;15.02;;;;;;;;;;4857982;29;20058;-85
2023/04/28 13:15:14;;;;;;;22.70;16.42;;;;;;;;;;4855985;29;20440;-85
2023/04/28 13:17:40;;;;;;;22.52;16.08;;;;;;;;;;4861229;29;20045;-84
2023/04/28 13:20:06;;;;;;;21.27;15.30;;;;;;;;;;4857829;29;20121;-85
2023/04/28 13:22:32;;;;;;;20.27;15.18;;;;;;;;;;4857972;29;20040;-86
2023/04/28 13:24:59;;;;;;;18.95;15.30;;;;;;;;;;4846867;29;20049;-85
2023/04/28 13:27:25;;;;;;;27.17;15.85;;;;;;;;;;4858864;29;20041;-85
2023/04/28 13:29:51;;;;;;;21.65;16.10;;;;;;;;;;4842893;29;20376;-83
2023/04/28 13:32:17;;;;;;;19.25;16.40;;;;;;;;;;4850037;29;20033;-84
2023/04/28 13:34:43;;;;;;;22.58;16.42;;;;;;;;;;4849867;29;20044;-84
2023/04/28 13:37:09;;;;;;;18.58;14.93;;;;;;;;;;4858571;29;20037;-85
2023/04/28 13:39:35;;;;;;;20.52;16.10;;;;;;;;;;4838723;29;20087;-84
2023/04/28 13:42:01;;;;;;;18.13;15.40;;;;;;;;;;4858570;29;20109;-83
2023/04/28 13:44:27;;;;;;;17.45;15.10;;;;;;;;;;4857044;29;20116;-83
2023/04/28 13:46:53;;;;;;;17.77;15.25;;;;;;;;;;4873131;29;20037;-84
2023/04/28 13:49:21;;;;;;;18.83;15.52;;;;;;;;;;4856943;29;20409;-84
2023/04/28 13:51:47;;;;;;;17.30;14.63;;;;;;;;;;4854630;29;20495;-84
2023/04/28 13:54:13;;;;;;;19.05;15.93;;;;;;;;;;4849347;29;20050;-84
2023/04/28 13:56:39;;;;;;;18.63;15.05;;;;;;;;;;4841368;29;20064;-84
2023/04/28 13:59:06;;;;;;;16.60;14.68;;;;;;;;;;4852147;29;20120;-85
2023/04/28 14:01:32;;;;;;;20.02;17.55;;;;;;;;;;4857361;29;20030;-83
2023/04/28 14:03:58;;;;;;;19.27;17.33;;;;;;;;;;4851394;29;20054;-86
2023/04/28 14:06:24;;;;;;;20.30;17.98;;;;;;;;;;4856509;29;20117;-85
2023/04/28 14:08:50;;;;;;;18.15;16.23;;;;;;;;;;4853703;29;20671;-85
2023/04/28 14:11:16;;;;;;;19.05;17.05;;;;;;;;;;4826226;29;20136;-84
2023/04/28 14:13:43;;;;;;;19.88;17.77;;;;;;;;;;4855652;29;20121;-84
2023/04/28 14:16:09;;;;;;;18.63;16.77;;;;;;;;;;4859431;29;20037;-85
2023/04/28 14:18:35;;;;;;;21.25;18.88;;;;;;;;;;4854707;29;20034;-85
2023/04/28 14:21:02;;;;;;;22.65;20.40;;;;;;;;;;4857324;29;20034;-85
2023/04/28 14:23:28;;;;;;;20.92;18.85;;;;;;;;;;4841608;29;20045;-87